Time;durP1;ratioP1;P1;durP2;ratioP2;P2;SDS_P1;SDS_P2;PMS_P1;PMS_P2;Temp;Humidity;BMP_temperature;BMP_pressure;BME280_temperature;BME280_humidity;BME280_pressure;Samples;Min_cycle;Max_cycle;Signal;HPM_P1;HPM_P2
2021/09/14 00:01:49;;;;;;;7.65;6.13;;;;;;;15.82;69.96;98820.38;2619132;39;20513;-63
2021/09/14 00:04:19;;;;;;;7.80;5.65;;;;;;;15.84;69.65;98819.13;2618580;54;20546;-63
2021/09/14 00:06:48;;;;;;;7.38;6.15;;;;;;;15.89;69.69;98823.78;2617753;39;20465;-62
2021/09/14 00:09:18;;;;;;;8.02;5.90;;;;;;;15.91;69.19;98816.34;2618337;54;20027;-63
2021/09/14 00:11:47;;;;;;;7.32;5.35;;;;;;;15.93;69.11;98821.47;2618306;54;20034;-62
2021/09/14 00:14:17;;;;;;;6.80;5.63;;;;;;;15.92;69.18;98815.34;2618351;54;20018;-63
2021/09/14 00:16:49;;;;;;;6.70;5.80;;;;;;;15.95;68.83;98819.38;2617186;47;20042;-63
2021/09/14 00:19:19;;;;;;;9.57;6.57;;;;;;;15.85;68.82;98810.09;2617899;47;20026;-63
2021/09/14 00:21:49;;;;;;;8.20;5.93;;;;;;;15.71;69.38;98816.63;2618160;54;20045;-64
2021/09/14 00:24:18;;;;;;;6.35;5.75;;;;;;;15.70;70.05;98811.53;2618410;54;20042;-63
2021/09/14 00:26:48;;;;;;;8.95;6.28;;;;;;;15.68;69.93;98803.75;2617761;54;20085;-62
2021/09/14 00:29:17;;;;;;;7.68;6.70;;;;;;;15.57;69.82;98810.63;2618220;54;20022;-64
2021/09/14 00:31:50;;;;;;;8.02;6.63;;;;;;;15.43;70.27;98801.19;2617424;54;20046;-63
2021/09/14 00:34:19;;;;;;;9.10;6.78;;;;;;;15.35;70.19;98799.63;2618590;39;20082;-62
2021/09/14 00:36:49;;;;;;;10.10;6.85;;;;;;;15.23;70.49;98796.09;2617733;54;20022;-62
2021/09/14 00:39:18;;;;;;;7.63;6.60;;;;;;;15.15;71.27;98790.25;2618084;54;20035;-62
2021/09/14 00:41:48;;;;;;;8.10;6.70;;;;;;;15.08;71.46;98796.47;2618151;54;20031;-62
2021/09/14 00:44:17;;;;;;;8.38;6.43;;;;;;;15.01;71.72;98792.22;2617791;54;20034;-62
2021/09/14 00:46:50;;;;;;;7.70;6.30;;;;;;;15.07;71.52;98786.03;2617940;54;20027;-62
2021/09/14 00:49:19;;;;;;;8.38;6.43;;;;;;;15.14;71.37;98786.75;2617735;47;20026;-62
2021/09/14 00:51:50;;;;;;;8.00;6.70;;;;;;;15.20;70.84;98785.06;2617906;54;20042;-62
2021/09/14 00:54:21;;;;;;;9.15;7.25;;;;;;;15.18;70.94;98785.28;2618676;39;20461;-63
2021/09/14 00:56:50;;;;;;;7.18;6.43;;;;;;;15.09;71.00;98784.75;2618365;54;20019;-62
2021/09/14 00:59:20;;;;;;;8.93;6.93;;;;;;;15.06;71.48;98776.41;2618998;54;20037;-63
2021/09/14 01:01:55;;;;;;;7.05;5.97;;;;;;;15.06;71.22;98777.25;2619246;39;20402;-63
2021/09/14 01:04:26;;;;;;;7.00;6.30;;;;;;;15.05;71.53;98774.78;2618712;39;20398;-63
2021/09/14 01:06:56;;;;;;;7.90;6.13;;;;;;;15.09;71.46;98775.97;2617819;54;20066;-63
2021/09/14 01:09:26;;;;;;;8.95;6.25;;;;;;;15.02;71.17;98777.88;2618142;54;20026;-63
2021/09/14 01:11:56;;;;;;;7.25;6.20;;;;;;;15.01;71.62;98774.41;2618602;54;20022;-63
2021/09/14 01:14:28;;;;;;;7.65;5.95;;;;;;;15.10;71.26;98775.75;2618611;54;20023;-63
2021/09/14 01:17:01;;;;;;;11.75;6.60;;;;;;;15.13;70.85;98773.69;2617581;54;20035;-63
2021/09/14 01:19:30;;;;;;;8.23;6.63;;;;;;;14.94;70.98;98775.50;2618909;54;20043;-63
2021/09/14 01:22:00;;;;;;;7.28;6.57;;;;;;;14.77;71.68;98777.94;2618479;54;20549;-62
2021/09/14 01:24:32;;;;;;;8.20;6.68;;;;;;;14.69;72.14;98783.56;2618103;51;20031;-63
2021/09/14 01:27:08;;;;;;;6.63;5.97;;;;;;;14.71;72.04;98776.97;2617870;54;20041;-62
2021/09/14 01:32:27;;;;;;;7.38;5.97;;;;;;;14.89;71.58;98778.84;2618506;39;20429;-63
2021/09/14 01:34:57;;;;;;;8.07;5.97;;;;;;;14.94;71.05;98783.50;2618057;47;20033;-63
2021/09/14 01:37:27;;;;;;;7.53;6.00;;;;;;;14.99;70.89;98789.81;2618316;54;20037;-63
2021/09/14 01:39:59;;;;;;;9.68;6.47;;;;;;;15.03;71.23;98787.53;2618160;54;20030;-63
2021/09/14 01:42:29;;;;;;;6.68;5.90;;;;;;;15.03;71.15;98790.19;2618472;54;20023;-64
2021/09/14 01:44:59;;;;;;;7.20;5.53;;;;;;;15.03;70.64;98793.66;2617540;47;20628;-64
2021/09/14 01:47:29;;;;;;;7.35;6.65;;;;;;;15.02;70.50;98791.19;2617321;47;20038;-64
2021/09/14 01:49:59;;;;;;;7.65;6.15;;;;;;;14.97;70.53;98796.38;2618180;54;20038;-63
2021/09/14 01:52:29;;;;;;;6.57;5.95;;;;;;;14.88;70.81;98795.03;2617964;47;20062;-64
2021/09/14 01:55:03;;;;;;;8.38;7.13;;;;;;;14.85;70.97;98804.28;2617755;54;20030;-64
2021/09/14 01:57:34;;;;;;;10.80;6.53;;;;;;;14.86;70.96;98798.75;2617347;54;20038;-64
2021/09/14 02:00:06;;;;;;;6.78;5.97;;;;;;;14.84;70.74;98800.78;2618727;31;20439;-63
2021/09/14 02:03:01;;;;;;;9.30;6.25;;;;;;;14.77;71.20;98794.72;2618424;54;20030;-64
2021/09/14 02:05:55;;;;;;;6.35;5.85;;;;;;;14.78;71.31;98787.56;2618470;54;20081;-64
2021/09/14 02:08:48;;;;;;;8.10;6.67;;;;;;;14.84;71.21;98800.00;2617403;54;20658;-64
2021/09/14 02:39:15;;;;;;;8.05;6.53;;;;;;;14.39;72.12;98781.53;2617514;54;20034;-64
2021/09/14 03:00:58;;;;;;;9.90;7.10;;;;;;;13.96;72.93;98784.94;2617681;54;20150;-63
2021/09/14 03:03:28;;;;;;;7.05;6.28;;;;;;;13.94;73.23;98772.88;2618420;39;20324;-64
2021/09/14 03:05:59;;;;;;;8.02;6.30;;;;;;;13.88;72.88;98777.22;2617780;46;20158;-64
2021/09/14 03:08:29;;;;;;;7.50;6.68;;;;;;;13.82;73.13;98784.19;2617058;54;20139;-63
2021/09/14 03:10:59;;;;;;;7.43;6.53;;;;;;;13.83;73.35;98782.34;2617901;54;20026;-63
2021/09/14 03:13:30;;;;;;;6.50;5.90;;;;;;;13.83;73.51;98785.81;2618068;54;20026;-63
2021/09/14 03:16:02;;;;;;;9.27;7.15;;;;;;;13.80;73.61;98782.81;2617904;47;20045;-63
2021/09/14 03:18:32;;;;;;;7.97;6.68;;;;;;;13.71;73.27;98776.91;2617393;54;20079;-63
2021/09/14 03:21:02;;;;;;;6.78;6.18;;;;;;;13.68;73.68;98782.66;2618502;54;20027;-62
2021/09/14 03:23:32;;;;;;;7.05;6.13;;;;;;;13.69;73.75;98783.47;2618049;54;20038;-63
2021/09/14 03:26:02;;;;;;;9.07;7.03;;;;;;;13.67;73.90;98781.00;2617908;54;20042;-63
2021/09/14 03:28:32;;;;;;;6.57;5.93;;;;;;;13.64;73.78;98776.16;2617513;54;20568;-63
2021/09/14 03:31:06;;;;;;;7.20;6.18;;;;;;;13.62;73.92;98772.88;2618338;54;20576;-62
2021/09/14 03:33:36;;;;;;;7.40;6.70;;;;;;;13.53;73.70;98771.50;2621006;54;20031;-63
2021/09/14 03:36:07;;;;;;;6.60;5.90;;;;;;;13.47;74.01;98773.16;2620175;54;20035;-63
2021/09/14 03:38:36;;;;;;;6.70;6.10;;;;;;;13.46;74.05;98776.03;2620085;51;20034;-63
2021/09/14 03:41:06;;;;;;;6.65;6.05;;;;;;;13.49;74.28;98772.94;2620357;47;20084;-64
2021/09/14 03:43:36;;;;;;;10.40;6.70;;;;;;;13.50;73.93;98775.38;2620610;54;20034;-63
2021/09/14 03:46:09;;;;;;;7.30;6.57;;;;;;;13.48;74.14;98773.97;2620706;54;20037;-63
2021/09/14 03:48:38;;;;;;;8.70;7.32;;;;;;;13.46;74.01;98765.41;2620383;54;20042;-63
2021/09/14 03:51:09;;;;;;;7.47;6.70;;;;;;;13.41;74.16;98765.22;2620833;54;20034;-63
2021/09/14 03:53:39;;;;;;;8.73;6.47;;;;;;;13.37;74.15;98757.69;2620637;47;20034;-63
2021/09/14 03:56:11;;;;;;;6.45;5.82;;;;;;;13.34;74.16;98763.41;2620198;47;20034;-63
2021/09/14 03:58:42;;;;;;;7.38;6.68;;;;;;;13.39;74.18;98760.13;2620531;54;20034;-63
2021/09/14 04:01:15;;;;;;;7.47;6.75;;;;;;;13.45;74.47;98763.78;2620309;51;20023;-62
2021/09/14 04:03:55;;;;;;;8.23;6.20;;;;;;;13.52;74.53;98762.72;2619985;39;20441;-63
2021/09/14 04:06:53;;;;;;;6.72;5.93;;;;;;;13.59;74.34;98763.50;2619796;54;20537;-63
2021/09/14 04:09:24;;;;;;;9.32;6.80;;;;;;;13.61;73.32;98761.44;2619832;47;20541;-63
2021/09/14 04:11:55;;;;;;;7.53;6.82;;;;;;;13.53;73.98;98758.22;2619481;51;20035;-63
2021/09/14 04:14:30;;;;;;;6.68;5.97;;;;;;;13.51;73.60;98768.22;2620175;39;20704;-64
2021/09/14 04:17:05;;;;;;;7.13;6.43;;;;;;;13.51;73.58;98765.56;2620787;54;20025;-63
2021/09/14 04:19:35;;;;;;;7.53;6.63;;;;;;;13.51;73.84;98769.06;2621364;54;20041;-62
2021/09/14 04:22:08;;;;;;;9.13;7.28;;;;;;;13.49;73.37;98757.81;2620991;47;20022;-63
2021/09/14 04:24:40;;;;;;;8.60;7.25;;;;;;;13.47;73.24;98759.06;2621434;51;20035;-63
2021/09/14 04:27:12;;;;;;;8.15;6.43;;;;;;;13.38;73.36;98761.94;2620666;47;20018;-63
2021/09/14 04:29:41;;;;;;;7.25;6.55;;;;;;;13.33;73.57;98763.63;2621201;54;20589;-63
2021/09/14 04:32:14;;;;;;;7.25;6.55;;;;;;;13.25;74.26;98762.00;2620805;51;20042;-62
2021/09/14 04:34:44;;;;;;;8.55;7.32;;;;;;;13.26;73.88;98758.31;2620957;47;20554;-64
2021/09/14 04:37:15;;;;;;;10.75;7.13;;;;;;;13.21;73.86;98763.44;2620671;54;20122;-63
2021/09/14 04:39:44;;;;;;;10.73;7.03;;;;;;;13.15;74.14;98756.31;2621477;39;20469;-64
2021/09/14 04:42:15;;;;;;;9.77;7.07;;;;;;;13.10;74.18;98759.59;2620472;51;20019;-63
2021/09/14 04:44:45;;;;;;;8.57;7.03;;;;;;;13.13;74.45;98756.50;2620694;47;20027;-63
2021/09/14 04:47:18;;;;;;;8.05;6.75;;;;;;;13.21;74.54;98754.66;2618900;47;20077;-63
2021/09/14 04:49:48;;;;;;;9.38;7.93;;;;;;;13.20;74.42;98756.50;2618127;54;20069;-64
2021/09/14 04:52:17;;;;;;;13.25;8.57;;;;;;;13.16;74.35;98749.16;2618069;47;20037;-63
2021/09/14 04:54:47;;;;;;;9.00;7.55;;;;;;;13.03;74.24;98752.69;2618523;51;20031;-64
2021/09/14 04:57:18;;;;;;;8.27;7.47;;;;;;;13.05;74.41;98754.09;2618041;51;20034;-64
2021/09/14 04:59:48;;;;;;;9.93;8.02;;;;;;;13.07;74.85;98756.56;2618274;54;20041;-63
2021/09/14 05:02:20;;;;;;;13.82;8.23;;;;;;;13.17;74.71;98756.91;2618360;54;20038;-64
2021/09/14 05:04:50;;;;;;;8.57;6.85;;;;;;;13.28;74.09;98752.81;2618819;54;20023;-63
2021/09/14 05:07:20;;;;;;;8.43;7.53;;;;;;;13.32;73.69;98751.38;2617795;46;20065;-63
2021/09/14 05:09:50;;;;;;;9.25;6.82;;;;;;;13.29;73.94;98752.59;2618464;39;20437;-63
2021/09/14 05:12:20;;;;;;;13.85;11.20;;;;;;;13.25;73.82;98751.41;2618354;47;20018;-63
2021/09/14 05:14:49;;;;;;;8.30;7.45;;;;;;;13.18;73.76;98750.56;2617923;46;20038;-63
2021/09/14 05:17:28;;;;;;;9.38;7.28;;;;;;;13.18;74.10;98757.72;2618128;54;20034;-63
2021/09/14 05:20:20;;;;;;;8.77;7.97;;;;;;;13.30;74.08;98750.75;2620686;54;20034;-64
2021/09/14 05:23:00;;;;;;;9.10;7.45;;;;;;;13.27;73.77;98745.91;2621547;54;20035;-63
2021/09/14 05:25:29;;;;;;;16.02;7.97;;;;;;;13.28;73.54;98753.63;2621292;49;20030;-63
2021/09/14 05:27:59;;;;;;;9.65;7.70;;;;;;;13.30;73.47;98742.78;2620949;51;20037;-63
2021/09/14 05:30:30;;;;;;;8.45;7.10;;;;;;;13.33;73.12;98753.00;2621249;54;20063;-64
2021/09/14 05:33:02;;;;;;;8.50;7.68;;;;;;;13.32;73.46;98752.19;2621322;54;20035;-63
2021/09/14 05:35:39;;;;;;;7.70;6.95;;;;;;;13.35;73.68;98750.97;2620903;54;20074;-63
2021/09/14 05:38:10;;;;;;;8.70;7.60;;;;;;;13.34;73.40;98744.81;2619175;47;20038;-65
2021/09/14 05:40:39;;;;;;;8.30;7.55;;;;;;;13.32;73.41;98744.22;2620787;47;20065;-64
2021/09/14 05:43:15;;;;;;;10.55;7.38;;;;;;;13.38;73.37;98750.53;2621343;51;20029;-62
2021/09/14 05:45:45;;;;;;;7.70;6.97;;;;;;;13.47;73.34;98751.94;2620375;47;20026;-63
2021/09/14 05:48:19;;;;;;;8.93;6.38;;;;;;;13.55;72.95;98750.84;2618656;47;20026;-63
2021/09/14 05:50:49;;;;;;;8.00;7.25;;;;;;;13.65;73.10;98751.19;2618794;47;20034;-63
2021/09/14 05:53:19;;;;;;;8.20;7.32;;;;;;;13.72;73.12;98762.59;2619698;39;20421;-63
2021/09/14 05:55:54;;;;;;;11.00;7.30;;;;;;;13.75;72.89;98762.16;2618352;47;20042;-63
2021/09/14 05:58:25;;;;;;;11.27;9.82;;;;;;;13.80;72.68;98769.50;2617766;54;20030;-63
2021/09/14 06:00:56;;;;;;;10.30;9.30;;;;;;;13.82;72.74;98764.78;2618160;54;20039;-63
2021/09/14 06:03:33;;;;;;;11.98;7.97;;;;;;;13.88;72.73;98763.94;2618140;54;20069;-63
2021/09/14 06:06:06;;;;;;;8.50;7.63;;;;;;;13.94;72.33;98756.94;2617990;47;20030;-63
2021/09/14 06:08:36;;;;;;;8.45;7.53;;;;;;;13.95;72.33;98758.56;2618179;39;20442;-63
2021/09/14 06:11:05;;;;;;;9.52;7.65;;;;;;;14.01;72.08;98765.69;2618708;39;20554;-63
2021/09/14 06:13:35;;;;;;;11.18;7.80;;;;;;;14.13;72.32;98769.28;2618055;54;20573;-64
2021/09/14 06:16:06;;;;;;;10.63;8.27;;;;;;;14.30;71.93;98770.38;2618543;39;20418;-64
2021/09/14 06:18:41;;;;;;;8.25;7.43;;;;;;;14.40;71.09;98772.53;2617551;46;20029;-64
2021/09/14 06:21:13;;;;;;;11.73;7.28;;;;;;;14.48;70.94;98774.91;2618022;47;20133;-64
2021/09/14 06:23:43;;;;;;;8.15;6.82;;;;;;;14.61;70.95;98766.03;2618683;31;20536;-64
2021/09/14 06:26:16;;;;;;;8.82;7.93;;;;;;;14.69;70.72;98773.72;2618470;54;20042;-64
2021/09/14 06:28:47;;;;;;;8.07;7.28;;;;;;;14.75;69.96;98769.38;2617541;47;20041;-64
2021/09/14 06:31:17;;;;;;;9.07;7.68;;;;;;;14.76;70.02;98768.34;2618984;39;20446;-64
2021/09/14 06:33:49;;;;;;;8.23;7.45;;;;;;;14.85;70.17;98772.34;2617862;54;20031;-64
2021/09/14 06:36:19;;;;;;;8.02;7.25;;;;;;;14.88;70.27;98771.09;2617930;47;20030;-64
2021/09/14 06:38:49;;;;;;;11.75;7.28;;;;;;;14.96;69.83;98779.59;2617468;47;20026;-64
2021/09/14 06:41:21;;;;;;;8.80;7.00;;;;;;;15.08;70.13;98775.16;2617828;54;20041;-65
2021/09/14 06:43:51;;;;;;;12.30;9.38;;;;;;;15.24;69.86;98779.06;2617816;54;20077;-65
2021/09/14 06:46:25;;;;;;;10.68;7.43;;;;;;;15.38;69.28;98781.56;2617881;54;20034;-64
2021/09/14 06:49:11;;;;;;;8.73;7.78;;;;;;;15.41;68.93;98781.94;2617558;47;20026;-64
2021/09/14 06:51:41;;;;;;;10.75;7.18;;;;;;;15.42;68.62;98775.56;2617971;54;20154;-65
2021/09/14 06:54:11;;;;;;;11.98;8.75;;;;;;;15.44;69.00;98778.84;2618330;54;20038;-64
2021/09/14 06:56:41;;;;;;;9.90;7.72;;;;;;;15.57;68.65;98789.31;2618037;47;20023;-63
2021/09/14 06:59:11;;;;;;;8.18;7.20;;;;;;;15.67;68.42;98785.31;2618398;54;20162;-64
2021/09/14 07:01:40;;;;;;;10.02;7.53;;;;;;;15.70;68.29;98777.69;2618773;54;20039;-64
2021/09/14 07:04:14;;;;;;;8.50;7.68;;;;;;;15.77;68.15;98775.75;2618653;54;20095;-63
2021/09/14 07:06:46;;;;;;;8.73;7.70;;;;;;;15.82;67.88;98772.41;2617987;54;20038;-65
2021/09/14 07:09:16;;;;;;;15.25;7.57;;;;;;;16.02;68.06;98780.13;2618396;54;20034;-64
2021/09/14 07:11:45;;;;;;;9.98;7.40;;;;;;;16.21;67.76;98781.66;2618346;54;20541;-64
2021/09/14 07:14:15;;;;;;;8.07;7.25;;;;;;;16.32;66.84;98788.03;2618601;54;20577;-64
2021/09/14 07:16:45;;;;;;;11.05;7.80;;;;;;;16.41;66.45;98789.34;2619112;54;20552;-64
2021/09/14 07:19:17;;;;;;;11.38;7.85;;;;;;;16.56;67.12;98795.03;2617958;54;20053;-64
2021/09/14 07:21:46;;;;;;;9.73;8.13;;;;;;;16.81;66.47;98797.50;2618337;54;20093;-64
2021/09/14 07:24:16;;;;;;;15.07;10.75;;;;;;;17.01;65.34;98793.66;2617564;47;20022;-64
2021/09/14 07:26:45;;;;;;;11.07;9.95;;;;;;;17.14;65.26;98792.59;2618245;54;20026;-64
2021/09/14 07:29:15;;;;;;;12.85;11.20;;;;;;;17.30;65.39;98790.00;2618215;39;20430;-64
2021/09/14 07:31:45;;;;;;;10.73;9.60;;;;;;;17.46;64.15;98785.75;2617647;47;20037;-65
2021/09/14 07:34:18;;;;;;;11.07;8.80;;;;;;;17.42;64.40;98783.81;2618546;39;20442;-64
2021/09/14 07:36:47;;;;;;;11.48;8.65;;;;;;;17.52;64.72;98789.38;2618235;54;20022;-64
2021/09/14 07:39:17;;;;;;;12.70;8.27;;;;;;;17.63;64.94;98788.50;2617225;47;20558;-64
2021/09/14 07:41:46;;;;;;;10.30;8.73;;;;;;;17.68;64.77;98785.13;2618165;54;20027;-64
2021/09/14 07:44:16;;;;;;;9.95;9.05;;;;;;;17.76;63.92;98787.44;2618121;54;20578;-65
2021/09/14 07:46:45;;;;;;;11.18;8.75;;;;;;;17.73;63.98;98783.34;2618110;54;20023;-64
2021/09/14 07:49:18;;;;;;;10.75;9.63;;;;;;;17.64;64.12;98782.13;2617253;47;20026;-64
2021/09/14 07:51:47;;;;;;;12.15;8.77;;;;;;;17.62;63.99;98778.03;2618280;54;20057;-64
2021/09/14 07:54:17;;;;;;;10.98;9.35;;;;;;;17.66;64.43;98781.88;2618111;54;20031;-64
2021/09/14 07:56:47;;;;;;;12.77;10.77;;;;;;;17.71;64.14;98777.41;2617471;47;20038;-64
2021/09/14 07:59:16;;;;;;;13.93;9.55;;;;;;;17.71;64.06;98779.28;2617988;54;20030;-64
2021/09/14 08:01:46;;;;;;;10.32;8.45;;;;;;;17.77;64.08;98773.03;2618503;54;20033;-64
2021/09/14 08:04:18;;;;;;;10.77;9.10;;;;;;;17.90;64.06;98774.59;2618716;46;20051;-63
2021/09/14 08:06:48;;;;;;;9.48;7.85;;;;;;;17.98;63.54;98777.66;2618184;47;20023;-64
2021/09/14 08:09:18;;;;;;;11.30;8.90;;;;;;;18.07;63.71;98783.44;2617620;47;20030;-63
2021/09/14 08:11:48;;;;;;;17.38;9.30;;;;;;;18.22;63.82;98785.56;2618319;54;20038;-63
2021/09/14 08:14:18;;;;;;;13.60;11.18;;;;;;;18.37;63.19;98783.16;2618491;54;20073;-63
2021/09/14 08:16:48;;;;;;;13.15;10.32;;;;;;;18.48;62.47;98784.09;2618706;39;20418;-64
2021/09/14 08:19:20;;;;;;;12.43;8.88;;;;;;;18.53;62.89;98787.69;2617823;54;20030;-64
2021/09/14 08:21:53;;;;;;;12.63;9.00;;;;;;;18.60;62.49;98779.47;2617967;39;20434;-64
2021/09/14 08:24:24;;;;;;;11.00;8.43;;;;;;;18.69;62.52;98779.84;2617884;54;20045;-65
2021/09/14 08:26:54;;;;;;;12.15;9.50;;;;;;;18.81;62.26;98784.09;2618184;54;20066;-64
2021/09/14 08:29:23;;;;;;;11.15;9.68;;;;;;;18.95;61.66;98781.88;2617520;54;20123;-65
2021/09/14 08:31:53;;;;;;;11.73;8.77;;;;;;;19.03;61.31;98781.44;2617901;54;20062;-64
2021/09/14 08:34:25;;;;;;;11.45;9.38;;;;;;;19.15;61.31;98781.34;2618107;54;20077;-64
2021/09/14 08:36:55;;;;;;;16.85;11.93;;;;;;;19.26;61.21;98779.56;2618095;54;20067;-64
2021/09/14 08:39:24;;;;;;;10.82;8.88;;;;;;;19.39;61.02;98786.44;2618011;54;20082;-63
2021/09/14 08:41:54;;;;;;;9.50;8.50;;;;;;;19.45;60.17;98780.88;2617750;54;20586;-65
2021/09/14 08:44:24;;;;;;;12.35;8.48;;;;;;;19.53;60.34;98775.06;2618745;54;20041;-63
2021/09/14 08:46:54;;;;;;;12.57;9.65;;;;;;;19.61;60.32;98773.03;2618369;54;20038;-64
2021/09/14 08:49:26;;;;;;;11.05;9.95;;;;;;;19.68;59.55;98768.31;2618496;54;20034;-63
2021/09/14 08:51:56;;;;;;;9.20;8.10;;;;;;;19.63;59.84;98774.41;2618349;54;20045;-63
2021/09/14 08:54:25;;;;;;;13.68;9.13;;;;;;;19.70;60.18;98768.84;2618369;54;20027;-63
2021/09/14 08:56:55;;;;;;;11.43;8.27;;;;;;;19.77;60.19;98761.41;2618256;54;20054;-63
2021/09/14 08:59:30;;;;;;;11.27;7.25;;;;;;;19.87;60.09;98758.81;2617814;54;20022;-63
2021/09/14 09:02:01;;;;;;;10.70;8.77;;;;;;;19.96;59.95;98759.16;2618569;39;20417;-63
2021/09/14 09:04:34;;;;;;;9.75;7.57;;;;;;;20.06;59.65;98761.94;2618106;54;20030;-64
2021/09/14 09:07:04;;;;;;;11.10;9.40;;;;;;;20.18;58.35;98764.47;2618864;54;20038;-63
2021/09/14 09:09:34;;;;;;;10.57;9.10;;;;;;;20.21;58.55;98755.91;2618860;54;20038;-63
2021/09/14 09:12:07;;;;;;;12.82;8.52;;;;;;;20.22;58.45;98747.59;2619329;54;20464;-63
2021/09/14 09:14:42;;;;;;;12.00;8.50;;;;;;;20.23;58.90;98751.88;2618712;54;20035;-64
2021/09/14 09:17:13;;;;;;;9.80;7.80;;;;;;;20.36;58.80;98744.47;2618497;54;20030;-63
2021/09/14 09:19:57;;;;;;;9.30;7.88;;;;;;;20.37;58.75;98746.91;2618872;54;20038;-63
2021/09/14 09:22:28;;;;;;;10.85;8.25;;;;;;;20.49;58.95;98754.78;2619037;54;20035;-63
2021/09/14 09:24:59;;;;;;;8.48;6.85;;;;;;;20.61;58.61;98758.09;2619305;54;20043;-63
2021/09/14 09:27:31;;;;;;;8.93;7.18;;;;;;;20.73;58.39;98761.38;2618840;54;20038;-63
2021/09/14 09:30:02;;;;;;;11.45;6.55;;;;;;;20.83;57.99;98759.84;2619346;54;20049;-62
2021/09/14 09:32:45;;;;;;;11.57;6.90;;;;;;;20.91;57.66;98757.47;2619013;54;20030;-63
2021/09/14 09:35:27;;;;;;;9.95;6.82;;;;;;;21.02;57.71;98742.19;2618977;54;20562;-62
2021/09/14 09:37:58;;;;;;;9.30;8.18;;;;;;;21.15;57.89;98749.78;2619063;39;20422;-63
2021/09/14 09:40:30;;;;;;;7.82;6.65;;;;;;;21.34;57.74;98755.53;2618357;54;20041;-64
2021/09/14 09:43:04;;;;;;;8.07;6.30;;;;;;;21.54;57.08;98749.41;2619180;54;20041;-64
2021/09/14 09:45:35;;;;;;;8.00;6.20;;;;;;;21.64;56.75;98756.72;2618944;54;20030;-63
2021/09/14 09:48:05;;;;;;;12.30;6.75;;;;;;;21.81;56.05;98753.78;2618167;54;20030;-63
2021/09/14 09:50:39;;;;;;;11.20;6.47;;;;;;;21.89;56.63;98758.63;2618925;54;20030;-64
2021/09/14 09:53:10;;;;;;;9.68;8.27;;;;;;;22.01;55.46;98756.50;2618875;39;20426;-64
2021/09/14 09:55:40;;;;;;;7.55;6.47;;;;;;;22.00;56.07;98754.84;2618944;54;20031;-64
2021/09/14 09:58:10;;;;;;;9.13;6.50;;;;;;;22.11;56.15;98748.41;2618584;47;20031;-64
2021/09/14 10:00:43;;;;;;;6.20;5.60;;;;;;;22.29;55.80;98744.41;2623329;54;20271;-64
2021/09/14 10:03:18;;;;;;;7.23;5.80;;;;;;;22.38;55.46;98742.78;2627871;39;20513;-64
2021/09/14 10:05:55;;;;;;;7.53;5.60;;;;;;;22.56;55.88;98740.59;2623975;54;20048;-64
2021/09/14 10:08:26;;;;;;;7.68;5.63;;;;;;;22.53;55.97;98727.66;2622348;47;20039;-64
2021/09/14 10:11:00;;;;;;;7.05;5.53;;;;;;;22.64;55.69;98735.44;2619643;39;20438;-63
2021/09/14 10:13:33;;;;;;;5.65;5.05;;;;;;;22.70;55.72;98734.38;2619180;54;20019;-64
2021/09/14 10:16:04;;;;;;;7.90;5.60;;;;;;;22.80;55.71;98738.91;2618835;54;20129;-64
2021/09/14 10:18:34;;;;;;;9.15;5.07;;;;;;;22.88;56.05;98732.16;2618483;54;20097;-64
2021/09/14 10:21:07;;;;;;;11.25;6.50;;;;;;;23.02;55.57;98727.00;2618660;47;20034;-64
2021/09/14 10:23:39;;;;;;;8.07;5.63;;;;;;;23.06;55.98;98734.28;2620886;47;20035;-64
2021/09/14 10:26:10;;;;;;;6.45;5.68;;;;;;;23.19;55.39;98730.19;2621378;47;20041;-64
2021/09/14 10:28:45;;;;;;;6.18;5.57;;;;;;;23.30;55.27;98736.34;2621496;54;20030;-64
2021/09/14 10:31:23;;;;;;;6.68;5.35;;;;;;;23.39;55.29;98734.66;2619587;54;20038;-64
2021/09/14 10:34:03;;;;;;;5.80;5.20;;;;;;;23.34;55.30;98732.81;2619242;54;20026;-64
2021/09/14 10:36:37;;;;;;;6.63;5.05;;;;;;;23.43;55.36;98724.94;2619291;39;20427;-63
2021/09/14 10:39:10;;;;;;;7.40;5.57;;;;;;;23.53;55.31;98721.38;2618563;54;20061;-64
2021/09/14 10:41:41;;;;;;;7.07;5.10;;;;;;;23.61;55.29;98715.41;2619764;31;20515;-64
2021/09/14 10:44:12;;;;;;;6.47;4.82;;;;;;;23.68;55.01;98718.63;2618951;54;20026;-63
2021/09/14 10:46:45;;;;;;;7.88;5.78;;;;;;;23.81;55.01;98720.69;2618164;54;20065;-64
2021/09/14 10:49:16;;;;;;;5.78;5.10;;;;;;;23.78;55.18;98723.94;2618280;54;20065;-64
2021/09/14 10:51:58;;;;;;;7.55;5.40;;;;;;;23.86;55.20;98719.84;2618767;54;20030;-64
2021/09/14 10:54:28;;;;;;;6.22;5.35;;;;;;;23.86;54.94;98717.94;2618787;54;20055;-64
2021/09/14 10:56:59;;;;;;;6.03;5.13;;;;;;;24.01;55.05;98713.53;2618810;54;20577;-64
2021/09/14 10:59:29;;;;;;;6.43;5.05;;;;;;;24.17;54.24;98715.81;2618425;54;20034;-64
2021/09/14 11:02:00;;;;;;;4.93;4.43;;;;;;;24.24;54.46;98715.47;2618859;54;20540;-64
2021/09/14 11:04:30;;;;;;;5.63;4.40;;;;;;;24.50;54.18;98726.09;2618875;54;20106;-64
2021/09/14 11:07:02;;;;;;;7.72;4.70;;;;;;;24.75;53.95;98716.91;2618664;54;20038;-64
2021/09/14 11:09:32;;;;;;;5.10;4.60;;;;;;;24.99;53.70;98712.28;2618472;54;20042;-64
2021/09/14 11:12:01;;;;;;;5.43;4.43;;;;;;;25.24;52.98;98711.19;2618706;54;20541;-64
2021/09/14 11:14:37;;;;;;;8.95;4.55;;;;;;;25.54;52.47;98707.25;2618174;47;20258;-64
2021/09/14 11:17:06;;;;;;;5.00;4.22;;;;;;;25.58;51.86;98696.63;2619070;54;20568;-64
2021/09/14 11:19:36;;;;;;;5.88;4.38;;;;;;;25.56;51.96;98699.66;2618384;54;20030;-64
2021/09/14 11:22:08;;;;;;;7.00;4.60;;;;;;;25.61;52.12;98696.84;2618604;54;20034;-64
2021/09/14 11:24:38;;;;;;;5.07;4.60;;;;;;;25.71;51.40;98695.88;2618981;54;20581;-64
2021/09/14 11:27:08;;;;;;;6.75;4.43;;;;;;;25.67;51.85;98694.88;2619347;54;20316;-71
2021/09/14 11:29:41;;;;;;;5.35;4.80;;;;;;;25.77;51.48;98693.91;2619155;54;20027;-71
2021/09/14 17:28:51;;;;;;;6.77;6.13;;;;;;;23.53;61.94;98624.25;2619956;47;20033;-64
2021/09/14 17:31:21;;;;;;;6.97;6.28;;;;;;;23.52;62.19;98626.16;2619173;54;20286;-63
2021/09/14 17:33:51;;;;;;;8.63;6.75;;;;;;;23.49;62.14;98621.31;2618885;46;20022;-64
2021/09/14 17:36:20;;;;;;;7.97;6.55;;;;;;;23.42;62.39;98618.13;2618557;50;20022;-64
2021/09/14 17:38:50;;;;;;;7.55;6.70;;;;;;;23.33;62.99;98612.53;2619182;39;20090;-64
2021/09/14 17:41:20;;;;;;;9.88;7.35;;;;;;;23.33;62.68;98609.03;2618942;39;20464;-64
2021/09/14 17:44:01;;;;;;;8.45;7.45;;;;;;;23.29;63.08;98607.97;2618254;47;20541;-64
2021/09/14 17:46:30;;;;;;;25.08;21.77;;;;;;;23.23;63.01;98609.91;2618382;54;20038;-64
2021/09/14 17:49:00;;;;;;;13.07;11.32;;;;;;;23.18;63.32;98607.22;2617636;54;20074;-64
2021/09/14 17:51:31;;;;;;;10.48;7.80;;;;;;;23.14;63.74;98611.56;2618920;54;20060;-64
2021/09/14 17:54:01;;;;;;;10.15;7.72;;;;;;;23.11;63.86;98617.53;2618849;54;20045;-64
2021/09/14 17:56:31;;;;;;;8.30;7.45;;;;;;;23.04;64.27;98619.72;2618249;54;20057;-64
2021/09/14 17:59:03;;;;;;;9.02;7.43;;;;;;;22.92;64.48;98618.16;2618451;54;20047;-65
2021/09/14 18:01:32;;;;;;;8.18;7.38;;;;;;;22.82;65.53;98612.81;2618241;54;20038;-65
2021/09/14 18:04:02;;;;;;;12.65;7.50;;;;;;;22.77;65.75;98618.19;2618728;54;20056;-64
2021/09/14 18:06:32;;;;;;;11.45;7.35;;;;;;;22.64;66.39;98625.00;2618164;47;20022;-65
2021/09/14 18:09:02;;;;;;;8.90;7.22;;;;;;;22.58;67.04;98628.00;2618378;54;20037;-65
2021/09/14 18:11:32;;;;;;;8.25;7.13;;;;;;;22.49;67.36;98628.56;2618931;54;20035;-65
2021/09/14 18:14:04;;;;;;;8.55;7.55;;;;;;;22.44;68.16;98633.94;2618608;54;20038;-65
2021/09/14 18:16:34;;;;;;;12.13;7.10;;;;;;;22.38;68.23;98632.38;2618687;54;20561;-65
2021/09/14 18:19:03;;;;;;;11.07;7.70;;;;;;;22.34;68.58;98634.00;2619063;39;20446;-65
2021/09/14 18:21:33;;;;;;;8.27;7.32;;;;;;;22.29;69.27;98636.69;2618705;54;20042;-65
2021/09/14 18:24:03;;;;;;;9.45;6.93;;;;;;;22.24;69.23;98628.63;2618569;39;20441;-65
2021/09/14 18:26:32;;;;;;;10.00;9.00;;;;;;;22.20;69.92;98622.97;2619019;54;20027;-64
2021/09/14 18:29:04;;;;;;;9.27;8.32;;;;;;;22.17;69.74;98628.91;2618338;54;20034;-65
2021/09/14 18:31:34;;;;;;;8.93;6.85;;;;;;;22.14;69.95;98634.03;2620338;54;20045;-65
2021/09/14 18:34:05;;;;;;;9.25;8.30;;;;;;;22.09;70.37;98640.22;2620136;54;20626;-65
2021/09/14 18:36:34;;;;;;;9.52;8.23;;;;;;;22.08;70.37;98638.56;2620172;54;20034;-65
2021/09/14 18:39:04;;;;;;;10.48;9.20;;;;;;;22.02;70.47;98639.66;2618949;54;20038;-65